Time;durP1;ratioP1;P1;durP2;ratioP2;P2;SDS_P1;SDS_P2;PMS_P1;PMS_P2;Temp;Humidity;BMP_temperature;BMP_pressure;BME280_temperature;BME280_humidity;BME280_pressure;Samples;Min_cycle;Max_cycle;Signal;HPM_P1;HPM_P2
2021/10/18 00:00:09;;;;;;;6.38;4.80;;;10.30;99.90;;;;;;2067418;28;20049;-70
2021/10/18 00:01:10;;;;;;;5.93;4.78;;;10.30;99.90;;;;;;2063363;28;20027;-69
2021/10/18 00:02:11;;;;;;;5.07;4.55;;;10.30;99.90;;;;;;2063793;28;20026;-69
2021/10/18 00:03:11;;;;;;;4.57;4.18;;;10.30;99.90;;;;;;2063758;28;20398;-70
2021/10/18 00:04:12;;;;;;;5.85;4.68;;;10.30;99.90;;;;;;2063785;28;20023;-69
2021/10/18 00:05:14;;;;;;;7.05;4.63;;;10.30;99.90;;;;;;2063461;28;20029;-69
2021/10/18 00:06:14;;;;;;;5.38;4.88;;;10.40;99.90;;;;;;2063621;28;20011;-69
2021/10/18 00:07:15;;;;;;;7.05;4.10;;;10.40;99.90;;;;;;2063641;28;20018;-69
2021/10/18 00:08:16;;;;;;;4.80;4.30;;;10.40;99.90;;;;;;2065186;28;20034;-69
2021/10/18 00:09:16;;;;;;;7.72;4.63;;;10.40;99.90;;;;;;2071619;28;20029;-69
2021/10/18 00:10:17;;;;;;;5.40;4.32;;;10.40;99.90;;;;;;2064030;28;20116;-70
2021/10/18 00:11:19;;;;;;;4.55;4.15;;;10.40;99.90;;;;;;2063677;28;20050;-70
2021/10/18 00:12:20;;;;;;;5.80;4.70;;;10.40;99.90;;;;;;2063932;28;20022;-69
2021/10/18 00:13:20;;;;;;;5.55;4.30;;;10.40;99.90;;;;;;2068542;28;20053;-70
2021/10/18 00:14:22;;;;;;;5.28;4.28;;;10.40;99.90;;;;;;2070573;28;20049;-69
2021/10/18 00:15:22;;;;;;;4.03;3.72;;;10.40;99.90;;;;;;2063350;28;20023;-69
2021/10/18 00:16:23;;;;;;;4.40;4.00;;;10.40;99.90;;;;;;2063601;28;20029;-70
2021/10/18 00:17:24;;;;;;;5.32;4.00;;;10.40;99.90;;;;;;2063418;28;20050;-69
2021/10/18 00:18:24;;;;;;;5.93;4.07;;;10.40;99.90;;;;;;2068685;28;20033;-69
2021/10/18 00:19:25;;;;;;;8.70;4.57;;;10.40;99.90;;;;;;2068960;28;20164;-69
2021/10/18 00:20:26;;;;;;;5.80;3.63;;;10.40;99.90;;;;;;2063605;28;20018;-69
2021/10/18 00:21:28;;;;;;;6.45;3.92;;;10.40;99.90;;;;;;2063308;28;20034;-70
2021/10/18 00:22:29;;;;;;;4.22;3.92;;;10.40;99.90;;;;;;2064587;28;20036;-69
2021/10/18 00:23:29;;;;;;;3.95;3.65;;;10.40;99.90;;;;;;2063629;28;20034;-69
2021/10/18 00:24:30;;;;;;;3.83;3.53;;;10.40;99.90;;;;;;2063794;28;20062;-69
2021/10/18 00:25:31;;;;;;;4.82;4.35;;;10.40;99.90;;;;;;2063475;28;20089;-70
2021/10/18 00:26:31;;;;;;;4.50;3.88;;;10.40;99.90;;;;;;2063630;28;20420;-69
2021/10/18 00:27:32;;;;;;;4.25;3.75;;;10.40;99.90;;;;;;2063527;28;20059;-70
2021/10/18 00:28:32;;;;;;;4.32;3.63;;;10.40;99.90;;;;;;2063069;28;20105;-69
2021/10/18 00:29:33;;;;;;;4.90;3.60;;;10.40;99.90;;;;;;2063930;28;20022;-70
2021/10/18 00:30:34;;;;;;;6.53;4.55;;;10.40;99.90;;;;;;2063389;28;20030;-70
2021/10/18 00:31:35;;;;;;;6.28;3.72;;;10.40;99.90;;;;;;2063562;28;20569;-70
2021/10/18 00:32:35;;;;;;;5.32;3.85;;;10.40;99.90;;;;;;2063400;28;20038;-69
2021/10/18 00:33:36;;;;;;;6.47;3.85;;;10.40;99.90;;;;;;2063473;28;20030;-69
2021/10/18 00:34:36;;;;;;;4.55;3.80;;;10.40;99.90;;;;;;2071299;28;20026;-69
2021/10/18 00:35:37;;;;;;;8.00;3.80;;;10.40;99.90;;;;;;2068247;28;20081;-69
2021/10/18 00:36:38;;;;;;;7.65;4.18;;;10.40;99.90;;;;;;2069066;28;20033;-69
2021/10/18 00:37:38;;;;;;;6.50;4.20;;;10.30;99.90;;;;;;2065268;28;20180;-69
2021/10/18 00:38:39;;;;;;;6.47;4.00;;;10.30;99.90;;;;;;2069407;28;20038;-69
2021/10/18 00:39:40;;;;;;;4.65;3.63;;;10.30;99.90;;;;;;2071680;28;20053;-69
2021/10/18 00:40:40;;;;;;;9.02;4.25;;;10.30;99.90;;;;;;2067109;28;20045;-70
2021/10/18 00:41:41;;;;;;;4.50;4.10;;;10.30;99.90;;;;;;2063381;28;20030;-70
2021/10/18 00:42:42;;;;;;;5.22;4.03;;;10.30;99.90;;;;;;2070752;28;20022;-69
2021/10/18 00:43:46;;;;;;;5.10;4.03;;;10.30;99.90;;;;;;2069057;28;20116;-70
2021/10/18 00:44:49;;;;;;;4.47;4.03;;;10.30;99.90;;;;;;2063102;28;20069;-69
2021/10/18 00:45:50;;;;;;;4.88;4.38;;;10.30;99.90;;;;;;2070026;28;20026;-70
2021/10/18 00:46:50;;;;;;;4.63;3.95;;;10.30;99.90;;;;;;2071259;28;20459;-70
2021/10/18 00:47:51;;;;;;;5.00;4.50;;;10.30;99.90;;;;;;2071485;28;20030;-70
2021/10/18 00:48:53;;;;;;;7.00;4.57;;;10.30;99.90;;;;;;2070874;28;20030;-70
2021/10/18 00:49:54;;;;;;;5.03;4.57;;;10.20;99.90;;;;;;2071570;28;20508;-70
2021/10/18 00:50:56;;;;;;;6.07;4.13;;;10.20;99.90;;;;;;2070445;28;20415;-69
2021/10/18 00:51:58;;;;;;;4.63;3.88;;;10.20;99.90;;;;;;2068338;28;20026;-69
2021/10/18 00:53:00;;;;;;;4.72;3.40;;;10.20;99.90;;;;;;2063362;28;20030;-69
2021/10/18 00:54:01;;;;;;;5.22;4.13;;;10.10;99.90;;;;;;2063371;28;20196;-69
2021/10/18 00:55:03;;;;;;;6.15;4.20;;;10.10;99.90;;;;;;2063383;28;20037;-69
2021/10/18 00:56:04;;;;;;;6.72;3.95;;;10.10;99.90;;;;;;2063155;28;20019;-69
2021/10/18 00:57:05;;;;;;;5.25;3.95;;;10.10;99.90;;;;;;2064098;28;20064;-69
2021/10/18 00:58:05;;;;;;;4.10;3.70;;;10.10;99.90;;;;;;2070601;28;20034;-69
2021/10/18 00:59:07;;;;;;;5.35;4.80;;;10.10;99.90;;;;;;2066872;28;20022;-69
2021/10/18 01:00:10;;;;;;;4.85;4.28;;;10.10;99.90;;;;;;2067872;28;20505;-69
2021/10/18 01:01:11;;;;;;;7.40;4.30;;;10.10;99.90;;;;;;2063437;28;20042;-69
2021/10/18 01:02:12;;;;;;;5.50;4.15;;;10.00;99.90;;;;;;2063999;28;20085;-69
2021/10/18 01:03:14;;;;;;;4.63;4.22;;;10.10;99.90;;;;;;2065752;28;20069;-69
2021/10/18 01:04:15;;;;;;;4.55;3.88;;;10.00;99.90;;;;;;2071402;28;20455;-69
2021/10/18 01:05:15;;;;;;;4.68;4.00;;;10.00;99.90;;;;;;2070667;28;20370;-69
2021/10/18 01:06:16;;;;;;;4.95;4.32;;;10.00;99.90;;;;;;2070393;28;20097;-69
2021/10/18 01:07:17;;;;;;;6.50;4.22;;;10.00;99.90;;;;;;2063272;28;20034;-69
2021/10/18 01:08:18;;;;;;;4.72;4.25;;;10.00;99.90;;;;;;2063032;28;20031;-69
2021/10/18 01:09:18;;;;;;;4.53;4.13;;;10.00;99.90;;;;;;2063245;28;20038;-69
2021/10/18 01:10:19;;;;;;;6.43;4.07;;;10.00;99.90;;;;;;2063532;28;20027;-69
2021/10/18 01:11:19;;;;;;;5.13;4.28;;;10.00;99.90;;;;;;2062852;28;20053;-69
2021/10/18 01:12:20;;;;;;;5.18;4.32;;;10.00;99.90;;;;;;2063689;28;20076;-69
2021/10/18 01:13:21;;;;;;;5.85;4.72;;;9.90;99.90;;;;;;2064878;28;20034;-69
2021/10/18 01:14:22;;;;;;;5.38;4.05;;;9.90;99.90;;;;;;2070749;28;20474;-69
2021/10/18 01:15:22;;;;;;;5.60;4.38;;;10.00;99.90;;;;;;2063264;28;20037;-69
2021/10/18 01:16:23;;;;;;;6.07;4.43;;;10.00;99.90;;;;;;2063212;28;20050;-69
2021/10/18 01:17:23;;;;;;;4.60;4.00;;;9.90;99.90;;;;;;2063583;28;20023;-69
2021/10/18 01:18:24;;;;;;;6.50;4.80;;;9.90;99.90;;;;;;2068391;28;20029;-69
2021/10/18 01:19:24;;;;;;;9.18;4.85;;;9.90;99.90;;;;;;2068758;28;20064;-69
2021/10/18 01:20:30;;;;;;;4.88;4.28;;;9.90;99.90;;;;;;2063365;28;20050;-69
2021/10/18 01:21:31;;;;;;;7.20;4.07;;;9.90;99.90;;;;;;2062801;28;20034;-69
2021/10/18 01:22:32;;;;;;;4.20;3.78;;;9.90;99.90;;;;;;2063457;28;20101;-69
2021/10/18 01:23:32;;;;;;;5.88;4.47;;;9.90;99.90;;;;;;2063145;28;20028;-69
2021/10/18 01:24:35;;;;;;;5.65;4.60;;;9.80;99.90;;;;;;2063267;28;20131;-69
2021/10/18 01:25:40;;;;;;;5.03;4.55;;;9.80;99.90;;;;;;2063587;28;20026;-69
2021/10/18 01:26:40;;;;;;;7.15;4.57;;;9.80;99.90;;;;;;2063119;28;20259;-69
2021/10/18 01:27:41;;;;;;;6.38;4.32;;;9.80;99.90;;;;;;2066778;28;20023;-69
2021/10/18 01:28:41;;;;;;;5.13;4.65;;;9.80;99.90;;;;;;2070594;28;20026;-69
2021/10/18 01:29:42;;;;;;;6.07;4.55;;;9.80;99.90;;;;;;2064117;28;20035;-69
2021/10/18 01:30:43;;;;;;;5.35;4.25;;;9.80;99.90;;;;;;2063220;28;20033;-69
2021/10/18 01:31:43;;;;;;;7.22;4.28;;;9.70;99.90;;;;;;2063350;28;20031;-69
2021/10/18 01:32:45;;;;;;;4.55;3.75;;;9.70;99.90;;;;;;2063108;28;20026;-69
2021/10/18 01:33:46;;;;;;;5.82;4.82;;;9.70;99.90;;;;;;2063504;28;20125;-69
2021/10/18 01:34:47;;;;;;;8.52;4.75;;;9.70;99.90;;;;;;2063115;28;20415;-69
2021/10/18 01:35:47;;;;;;;6.53;4.30;;;9.70;99.90;;;;;;2060694;28;20105;-69
2021/10/18 01:36:48;;;;;;;6.15;4.78;;;9.70;99.90;;;;;;2070867;28;20026;-69
2021/10/18 01:37:49;;;;;;;5.38;4.60;;;9.60;99.90;;;;;;2064944;28;20026;-69
2021/10/18 01:38:50;;;;;;;6.07;4.60;;;9.70;99.90;;;;;;2069695;28;20022;-69
2021/10/18 01:39:50;;;;;;;5.90;4.68;;;9.60;99.90;;;;;;2071585;28;20038;-69
2021/10/18 01:40:51;;;;;;;4.60;4.00;;;9.60;99.90;;;;;;2065856;28;20035;-69
2021/10/18 01:41:52;;;;;;;4.93;4.43;;;9.60;99.90;;;;;;2064229;28;20049;-69
2021/10/18 01:42:52;;;;;;;5.45;4.53;;;9.60;99.90;;;;;;2069254;28;20060;-69
2021/10/18 01:43:53;;;;;;;5.13;4.30;;;9.60;99.90;;;;;;2071230;28;20022;-69
2021/10/18 01:44:53;;;;;;;4.93;4.47;;;9.60;99.90;;;;;;2068176;28;20022;-69
2021/10/18 01:45:54;;;;;;;5.00;4.50;;;9.60;99.90;;;;;;2064672;28;20029;-69
2021/10/18 01:46:55;;;;;;;6.22;4.40;;;9.60;99.90;;;;;;2063363;28;20101;-69
2021/10/18 01:47:55;;;;;;;5.95;5.03;;;9.60;99.90;;;;;;2063415;28;20467;-69
2021/10/18 01:48:56;;;;;;;8.65;5.32;;;9.60;99.90;;;;;;2062772;28;20049;-69
2021/10/18 01:49:56;;;;;;;4.95;4.45;;;9.60;99.90;;;;;;2063117;28;20395;-69
2021/10/18 01:50:57;;;;;;;4.90;4.50;;;9.60;99.90;;;;;;2062938;28;20085;-69
2021/10/18 01:51:58;;;;;;;5.43;4.93;;;9.60;99.90;;;;;;2068357;28;20495;-69
2021/10/18 01:52:58;;;;;;;6.15;5.18;;;9.60;99.90;;;;;;2071275;28;20806;-69
2021/10/18 01:53:59;;;;;;;5.93;4.47;;;9.50;99.90;;;;;;2064552;28;20029;-69
2021/10/18 01:54:59;;;;;;;6.18;4.25;;;9.50;99.90;;;;;;2063031;28;20026;-69
2021/10/18 01:56:00;;;;;;;5.80;4.85;;;9.50;99.90;;;;;;2064656;28;20042;-69
2021/10/18 01:57:00;;;;;;;5.80;4.85;;;9.50;99.90;;;;;;2067795;28;20498;-69
2021/10/18 01:58:01;;;;;;;5.28;4.68;;;9.50;99.90;;;;;;2069640;28;20509;-69
2021/10/18 01:59:03;;;;;;;14.10;5.00;;;9.50;99.90;;;;;;2070040;28;20029;-69
2021/10/18 02:00:05;;;;;;;4.82;4.43;;;9.50;99.90;;;;;;2073906;28;20021;-69
2021/10/18 02:01:06;;;;;;;4.80;4.40;;;9.50;99.90;;;;;;2079808;28;20327;-69
2021/10/18 02:02:07;;;;;;;6.70;5.40;;;9.40;99.90;;;;;;2070575;28;20021;-69
2021/10/18 02:03:07;;;;;;;8.48;4.60;;;9.40;99.90;;;;;;2070556;28;20689;-69
2021/10/18 02:04:08;;;;;;;6.65;5.13;;;9.40;99.90;;;;;;2064810;28;20054;-69
2021/10/18 02:05:08;;;;;;;6.05;5.00;;;9.40;99.90;;;;;;2064117;28;20031;-69
2021/10/18 02:06:10;;;;;;;5.10;4.60;;;9.40;99.90;;;;;;2067064;28;20022;-69
2021/10/18 02:07:10;;;;;;;9.70;5.32;;;9.40;99.90;;;;;;2069274;28;20027;-69
2021/10/18 02:08:11;;;;;;;8.18;5.38;;;9.40;99.90;;;;;;2069359;28;20022;-69
2021/10/18 02:09:11;;;;;;;6.47;4.75;;;9.40;99.90;;;;;;2073905;28;20037;-69
2021/10/18 02:10:13;;;;;;;5.18;4.32;;;9.40;99.90;;;;;;2074228;28;20022;-69
2021/10/18 02:11:14;;;;;;;5.25;4.65;;;9.40;99.90;;;;;;2074115;28;20101;-69
2021/10/18 02:12:14;;;;;;;6.25;5.25;;;9.40;99.90;;;;;;2073526;28;20025;-69
2021/10/18 02:13:15;;;;;;;6.00;4.43;;;9.40;99.90;;;;;;2070170;28;20109;-69
2021/10/18 02:14:16;;;;;;;6.60;5.00;;;9.40;99.90;;;;;;2073556;28;20442;-69
2021/10/18 02:15:16;;;;;;;5.38;4.18;;;9.40;99.90;;;;;;2073261;28;20018;-69
2021/10/18 02:16:17;;;;;;;5.93;4.50;;;9.30;99.90;;;;;;2070334;28;20014;-69
2021/10/18 02:17:18;;;;;;;5.70;4.78;;;9.30;99.90;;;;;;2072073;28;20097;-69
2021/10/18 02:18:18;;;;;;;5.90;4.95;;;9.40;99.90;;;;;;2071366;28;20088;-69
2021/10/18 02:19:19;;;;;;;5.18;4.68;;;9.30;99.90;;;;;;2072064;28;20022;-69
2021/10/18 02:20:19;;;;;;;5.85;5.18;;;9.30;99.90;;;;;;2065821;28;20014;-69
2021/10/18 02:21:20;;;;;;;6.22;4.93;;;9.30;99.90;;;;;;2066005;28;20080;-69
2021/10/18 02:22:20;;;;;;;7.63;5.35;;;9.30;99.90;;;;;;2067720;28;20101;-69
2021/10/18 02:23:21;;;;;;;5.68;4.80;;;9.30;99.90;;;;;;2066028;28;20084;-69
2021/10/18 02:24:21;;;;;;;4.60;4.15;;;9.30;99.90;;;;;;2065827;28;20041;-69
2021/10/18 02:25:22;;;;;;;6.55;5.20;;;9.30;99.90;;;;;;2066196;28;20029;-69
2021/10/18 02:26:23;;;;;;;4.90;4.15;;;9.20;99.90;;;;;;2065721;28;20485;-69
2021/10/18 02:27:24;;;;;;;5.55;4.43;;;9.20;99.90;;;;;;2065992;28;20018;-69
2021/10/18 02:28:24;;;;;;;5.90;4.60;;;9.20;99.90;;;;;;2065222;28;20113;-69
2021/10/18 02:29:25;;;;;;;5.28;4.45;;;9.30;99.90;;;;;;2066053;28;20014;-69
2021/10/18 02:30:26;;;;;;;6.20;5.05;;;9.20;99.90;;;;;;2065573;28;20149;-69
2021/10/18 02:31:26;;;;;;;5.70;4.70;;;9.20;99.90;;;;;;2065927;28;20042;-69
2021/10/18 02:32:27;;;;;;;5.78;5.18;;;9.20;99.90;;;;;;2065661;28;20027;-69
2021/10/18 02:33:27;;;;;;;7.03;4.82;;;9.20;99.90;;;;;;2066046;28;20030;-69
2021/10/18 02:34:28;;;;;;;6.97;4.50;;;9.20;99.90;;;;;;2065709;28;20055;-69
2021/10/18 02:35:28;;;;;;;7.03;4.30;;;9.20;99.90;;;;;;2070583;28;20368;-69
2021/10/18 02:36:30;;;;;;;5.50;4.45;;;9.20;99.90;;;;;;2072178;28;20101;-69
2021/10/18 02:37:31;;;;;;;5.82;4.60;;;9.10;99.90;;;;;;2068861;28;20422;-69
2021/10/18 02:38:31;;;;;;;6.90;4.88;;;9.10;99.90;;;;;;2071690;28;20034;-69
2021/10/18 02:39:32;;;;;;;5.22;4.07;;;9.20;99.90;;;;;;2072941;28;20105;-69
2021/10/18 02:40:33;;;;;;;4.93;4.30;;;9.10;99.90;;;;;;2070478;28;20037;-69
2021/10/18 02:41:33;;;;;;;5.47;4.95;;;9.10;99.90;;;;;;2065900;28;20042;-69
2021/10/18 02:42:34;;;;;;;4.90;3.90;;;9.10;99.90;;;;;;2068866;28;20422;-69
2021/10/18 02:43:34;;;;;;;4.93;4.40;;;9.10;99.90;;;;;;2071284;28;20101;-69
2021/10/18 02:44:35;;;;;;;5.28;4.45;;;9.10;99.90;;;;;;2065852;28;20105;-69
2021/10/18 02:45:36;;;;;;;6.40;4.85;;;9.10;99.90;;;;;;2065888;28;20057;-69
2021/10/18 02:46:36;;;;;;;5.32;4.47;;;9.00;99.90;;;;;;2065741;28;20026;-69
2021/10/18 02:47:37;;;;;;;5.15;4.45;;;9.00;99.90;;;;;;2065886;28;20382;-69
2021/10/18 02:48:38;;;;;;;5.13;4.25;;;9.00;99.90;;;;;;2065235;28;20081;-69
2021/10/18 02:49:39;;;;;;;4.22;3.78;;;9.00;99.90;;;;;;2065925;28;20030;-69
2021/10/18 02:50:39;;;;;;;5.05;4.53;;;9.00;99.90;;;;;;2065458;28;20378;-69
2021/10/18 02:51:40;;;;;;;4.75;4.30;;;9.00;99.90;;;;;;2067271;28;20213;-69
2021/10/18 02:52:40;;;;;;;7.43;5.35;;;8.90;99.90;;;;;;2073226;28;20059;-69
2021/10/18 02:53:41;;;;;;;4.78;4.00;;;8.90;99.90;;;;;;2068939;28;20084;-69
2021/10/18 02:54:41;;;;;;;4.90;3.95;;;8.90;99.90;;;;;;2065881;28;20116;-69
2021/10/18 02:55:42;;;;;;;5.32;4.82;;;8.90;99.90;;;;;;2065659;28;20457;-69
2021/10/18 02:56:43;;;;;;;6.35;4.50;;;8.90;99.90;;;;;;2065817;28;20030;-69
2021/10/18 02:57:44;;;;;;;4.70;4.30;;;8.90;99.90;;;;;;2071845;28;20037;-69
2021/10/18 02:58:44;;;;;;;5.53;3.92;;;8.90;99.90;;;;;;2067472;28;20109;-69
2021/10/18 02:59:45;;;;;;;4.82;4.43;;;8.90;99.90;;;;;;2072407;28;20068;-69
2021/10/18 03:00:45;;;;;;;5.38;4.50;;;8.90;99.90;;;;;;2065050;28;20046;-69
2021/10/18 03:01:46;;;;;;;6.90;4.78;;;8.90;99.90;;;;;;2064254;28;20044;-69
2021/10/18 03:02:47;;;;;;;6.47;4.97;;;8.80;99.90;;;;;;2069978;28;20486;-69
2021/10/18 03:03:47;;;;;;;5.00;4.55;;;8.80;99.90;;;;;;2065038;28;20027;-69
2021/10/18 03:04:48;;;;;;;5.05;3.92;;;8.80;99.90;;;;;;2065042;28;20031;-69
2021/10/18 03:05:48;;;;;;;5.40;4.80;;;8.80;99.90;;;;;;2064980;28;20022;-69
2021/10/18 03:06:49;;;;;;;6.60;4.50;;;8.80;99.90;;;;;;2066520;28;20049;-69
2021/10/18 03:07:52;;;;;;;5.90;5.30;;;8.80;99.90;;;;;;2064499;28;20411;-69
2021/10/18 03:08:53;;;;;;;6.22;5.00;;;8.80;99.90;;;;;;2064079;28;20023;-69
2021/10/18 03:09:54;;;;;;;5.88;4.90;;;8.70;99.90;;;;;;2068804;28;20065;-69
2021/10/18 03:10:54;;;;;;;7.72;5.22;;;8.80;99.90;;;;;;2071900;28;20386;-69
2021/10/18 03:11:55;;;;;;;6.45;5.43;;;8.80;99.90;;;;;;2072208;28;20030;-69
2021/10/18 03:12:55;;;;;;;5.40;4.90;;;8.70;99.90;;;;;;2069056;28;20049;-69
2021/10/18 03:13:56;;;;;;;5.68;5.15;;;8.70;99.90;;;;;;2064129;28;20041;-69
2021/10/18 03:14:56;;;;;;;6.35;4.75;;;8.70;99.90;;;;;;2064966;28;20032;-69
2021/10/18 03:15:57;;;;;;;5.95;4.28;;;8.70;99.90;;;;;;2071292;28;20185;-69
2021/10/18 03:16:58;;;;;;;5.47;4.90;;;8.70;99.90;;;;;;2071813;28;20083;-69
2021/10/18 03:17:58;;;;;;;6.68;4.90;;;8.70;99.90;;;;;;2066441;28;20074;-69
2021/10/18 03:18:59;;;;;;;6.05;5.05;;;8.70;99.90;;;;;;2071735;28;20034;-69
2021/10/18 03:19:59;;;;;;;5.07;4.68;;;8.70;99.90;;;;;;2064691;28;20076;-69
2021/10/18 03:21:00;;;;;;;6.55;5.50;;;8.70;99.90;;;;;;2066993;28;21319;-69
2021/10/18 03:22:00;;;;;;;7.32;5.63;;;8.60;99.90;;;;;;2072611;28;20030;-69
2021/10/18 03:23:01;;;;;;;5.32;4.30;;;8.70;99.90;;;;;;2065267;28;20030;-69
2021/10/18 03:24:02;;;;;;;5.43;4.85;;;8.70;99.90;;;;;;2064103;28;20097;-69
2021/10/18 03:25:03;;;;;;;4.97;4.50;;;8.60;99.90;;;;;;2064641;28;20035;-69
2021/10/18 03:26:04;;;;;;;5.28;4.78;;;8.60;99.90;;;;;;2064998;28;20077;-69
2021/10/18 03:27:05;;;;;;;7.03;4.80;;;8.60;99.90;;;;;;2064255;28;20096;-69
2021/10/18 03:28:05;;;;;;;8.60;5.05;;;8.60;99.90;;;;;;2063704;28;20666;-69
2021/10/18 03:29:06;;;;;;;5.47;4.97;;;8.60;99.90;;;;;;2064183;28;20026;-69
2021/10/18 03:30:07;;;;;;;7.00;4.63;;;8.60;99.90;;;;;;2064459;28;20030;-69
2021/10/18 03:31:09;;;;;;;7.82;4.85;;;8.60;99.90;;;;;;2064104;28;20069;-69
2021/10/18 03:32:09;;;;;;;5.45;4.95;;;8.60;99.90;;;;;;2064125;28;20065;-69
2021/10/18 03:33:10;;;;;;;5.25;4.60;;;8.60;99.90;;;;;;2071670;28;20029;-69
2021/10/18 03:34:10;;;;;;;5.72;5.13;;;8.60;99.90;;;;;;2066853;28;20037;-69
2021/10/18 03:35:11;;;;;;;6.03;5.20;;;8.60;99.90;;;;;;2064011;28;20030;-69
2021/10/18 03:36:11;;;;;;;5.50;4.93;;;8.60;99.90;;;;;;2069869;28;20740;-69
2021/10/18 03:37:12;;;;;;;9.25;4.45;;;8.60;99.90;;;;;;2069528;28;20052;-69
2021/10/18 03:38:13;;;;;;;4.88;4.40;;;8.60;99.90;;;;;;2067953;28;20097;-69
2021/10/18 03:39:16;;;;;;;5.38;4.45;;;8.60;99.90;;;;;;2070544;28;20026;-69
2021/10/18 03:40:16;;;;;;;5.53;4.43;;;8.60;99.90;;;;;;2071121;28;20033;-69
2021/10/18 03:41:17;;;;;;;4.70;4.07;;;8.50;99.90;;;;;;2064037;28;20030;-69
2021/10/18 03:42:17;;;;;;;7.25;4.93;;;8.60;99.90;;;;;;2064297;28;20028;-69
2021/10/18 03:43:19;;;;;;;4.90;4.40;;;8.60;99.90;;;;;;2071948;28;20104;-69
2021/10/18 03:44:20;;;;;;;8.00;5.28;;;8.50;99.90;;;;;;2064756;28;20464;-69
2021/10/18 03:45:20;;;;;;;6.00;4.88;;;8.60;99.90;;;;;;2063869;28;20642;-69
2021/10/18 03:46:21;;;;;;;5.97;4.47;;;8.60;99.90;;;;;;2064185;28;20030;-69
2021/10/18 03:47:22;;;;;;;6.25;5.07;;;8.60;99.90;;;;;;2064747;28;20027;-69
2021/10/18 03:48:22;;;;;;;7.35;4.43;;;8.60;99.90;;;;;;2070914;28;20430;-69
2021/10/18 03:49:23;;;;;;;4.65;4.25;;;8.60;99.90;;;;;;2064108;28;20057;-69
2021/10/18 03:50:23;;;;;;;5.07;4.57;;;8.60;99.90;;;;;;2064068;28;20119;-69
2021/10/18 03:51:25;;;;;;;5.03;4.50;;;8.50;99.90;;;;;;2069338;28;20080;-69
2021/10/18 03:52:25;;;;;;;5.40;4.88;;;8.60;99.90;;;;;;2070632;28;20022;-69
2021/10/18 03:53:26;;;;;;;5.57;4.95;;;8.60;99.90;;;;;;2069541;28;20022;-69
2021/10/18 03:54:26;;;;;;;5.75;5.13;;;8.50;99.90;;;;;;2070026;28;20041;-69
2021/10/18 03:55:27;;;;;;;5.13;4.63;;;8.60;99.90;;;;;;2066655;28;20345;-69
2021/10/18 03:56:28;;;;;;;4.70;4.30;;;8.60;99.90;;;;;;2063990;28;20026;-69
2021/10/18 03:57:28;;;;;;;4.80;4.38;;;8.60;99.90;;;;;;2067926;28;20018;-69
2021/10/18 03:58:29;;;;;;;5.72;4.80;;;8.60;99.90;;;;;;2067786;28;20452;-69
2021/10/18 03:59:29;;;;;;;7.88;5.80;;;8.50;99.90;;;;;;2070488;28;20077;-69
2021/10/18 04:00:30;;;;;;;5.35;4.70;;;8.60;99.90;;;;;;2065130;28;20030;-69
2021/10/18 04:01:31;;;;;;;5.80;5.05;;;8.60;99.90;;;;;;2065480;28;20038;-69
2021/10/18 04:02:31;;;;;;;5.47;4.97;;;8.60;99.90;;;;;;2065473;28;20057;-69
2021/10/18 04:03:32;;;;;;;6.20;5.38;;;8.60;99.90;;;;;;2067627;28;20056;-69
2021/10/18 04:04:34;;;;;;;8.05;5.75;;;8.60;99.90;;;;;;2071582;28;20022;-69
2021/10/18 04:05:34;;;;;;;5.88;5.38;;;8.60;99.90;;;;;;2064095;28;20023;-69
2021/10/18 04:06:35;;;;;;;6.45;5.10;;;8.60;99.90;;;;;;2067872;28;20029;-69
2021/10/18 04:07:40;;;;;;;5.45;4.80;;;8.60;99.90;;;;;;2071891;28;20108;-69
2021/10/18 04:08:41;;;;;;;6.43;5.82;;;8.60;99.90;;;;;;2071409;28;20494;-69
2021/10/18 04:09:45;;;;;;;6.25;5.07;;;8.60;99.90;;;;;;2072083;28;20514;-69
2021/10/18 04:10:45;;;;;;;5.97;5.22;;;8.60;99.90;;;;;;2072198;28;20030;-69
2021/10/18 04:11:46;;;;;;;6.68;5.45;;;8.60;99.90;;;;;;2071950;28;20033;-69
2021/10/18 04:12:47;;;;;;;5.82;5.30;;;8.60;99.90;;;;;;2069243;28;20033;-69
2021/10/18 04:13:47;;;;;;;5.30;4.80;;;8.60;99.90;;;;;;2063700;28;20037;-69
2021/10/18 04:14:48;;;;;;;5.18;4.68;;;8.60;99.90;;;;;;2064346;28;20113;-69
2021/10/18 04:15:48;;;;;;;7.32;4.72;;;8.60;99.90;;;;;;2071997;28;20033;-69
2021/10/18 04:16:49;;;;;;;5.78;5.20;;;8.60;99.90;;;;;;2063886;28;20026;-69
2021/10/18 04:17:50;;;;;;;5.50;4.55;;;8.60;99.90;;;;;;2064924;28;20030;-69
2021/10/18 04:18:50;;;;;;;5.38;4.80;;;8.60;99.90;;;;;;2071313;28;20068;-69
2021/10/18 04:19:51;;;;;;;5.43;4.70;;;8.60;99.90;;;;;;2065607;28;20042;-69
2021/10/18 04:20:52;;;;;;;12.48;5.45;;;8.60;99.90;;;;;;2063389;28;20431;-69
2021/10/18 04:21:53;;;;;;;8.52;5.28;;;8.60;99.90;;;;;;2063853;28;20378;-69
2021/10/18 04:22:53;;;;;;;6.97;5.57;;;8.60;99.90;;;;;;2067667;28;20034;-69
2021/10/18 04:23:54;;;;;;;6.30;5.70;;;8.60;99.90;;;;;;2071846;28;20041;-69
2021/10/18 04:24:54;;;;;;;8.27;5.75;;;8.60;99.90;;;;;;2064152;28;20105;-69
2021/10/18 04:25:55;;;;;;;6.55;5.68;;;8.60;99.90;;;;;;2063752;28;20038;-69
2021/10/18 04:26:55;;;;;;;9.18;6.50;;;8.60;99.90;;;;;;2063655;28;20037;-69
2021/10/18 04:27:56;;;;;;;7.68;6.20;;;8.60;99.90;;;;;;2063485;28;20018;-69
2021/10/18 04:28:57;;;;;;;6.43;5.25;;;8.60;99.90;;;;;;2065908;28;20730;-69
2021/10/18 04:29:57;;;;;;;7.00;5.53;;;8.60;99.90;;;;;;2063944;28;20022;-69
2021/10/18 04:30:58;;;;;;;6.65;5.60;;;8.60;99.90;;;;;;2063615;28;20037;-69
2021/10/18 04:31:58;;;;;;;6.05;4.95;;;8.60;99.90;;;;;;2063304;28;20384;-69
2021/10/18 04:32:59;;;;;;;8.40;5.85;;;8.60;99.90;;;;;;2068246;28;20030;-69
2021/10/18 04:34:00;;;;;;;6.38;5.78;;;8.60;99.90;;;;;;2071625;28;20104;-69
2021/10/18 04:35:00;;;;;;;8.45;5.97;;;8.60;99.90;;;;;;2071674;28;20104;-69
2021/10/18 04:36:01;;;;;;;8.60;5.97;;;8.60;99.90;;;;;;2067910;28;20530;-69
2021/10/18 04:37:02;;;;;;;6.75;6.05;;;8.60;99.90;;;;;;2070474;28;20030;-69
2021/10/18 04:38:03;;;;;;;6.53;5.85;;;8.60;99.90;;;;;;2066152;28;20081;-69
2021/10/18 04:39:04;;;;;;;7.55;5.43;;;8.60;99.90;;;;;;2069307;28;20045;-69
2021/10/18 04:40:05;;;;;;;7.40;6.63;;;8.60;99.90;;;;;;2072105;28;20480;-69
2021/10/18 04:41:06;;;;;;;7.78;6.40;;;8.60;99.90;;;;;;2064037;28;20029;-69
2021/10/18 04:42:07;;;;;;;8.13;5.95;;;8.60;99.90;;;;;;2063602;28;20030;-69
2021/10/18 04:43:07;;;;;;;6.47;5.47;;;8.60;99.90;;;;;;2066654;28;20034;-69
2021/10/18 04:44:08;;;;;;;5.10;4.60;;;8.60;99.90;;;;;;2065290;28;20105;-69
2021/10/18 04:45:10;;;;;;;8.07;6.28;;;8.60;99.90;;;;;;2063719;28;20455;-69
2021/10/18 04:46:12;;;;;;;6.85;5.20;;;8.60;99.90;;;;;;2063598;28;20355;-69
2021/10/18 04:47:12;;;;;;;6.50;5.90;;;8.50;99.90;;;;;;2063878;28;20018;-69
2021/10/18 04:48:13;;;;;;;7.07;5.53;;;8.50;99.90;;;;;;2071203;28;20030;-69
2021/10/18 04:49:14;;;;;;;6.00;5.35;;;8.50;99.90;;;;;;2063522;28;20571;-69
2021/10/18 04:50:15;;;;;;;6.43;5.10;;;8.50;99.90;;;;;;2063269;28;20057;-69
2021/10/18 04:51:16;;;;;;;7.38;6.10;;;8.50;99.90;;;;;;2068418;28;20435;-69
2021/10/18 04:52:17;;;;;;;7.97;5.90;;;8.50;99.90;;;;;;2064912;28;20092;-69
2021/10/18 04:53:17;;;;;;;7.10;5.97;;;8.50;99.90;;;;;;2064893;28;20031;-70
2021/10/18 04:54:18;;;;;;;7.88;5.63;;;8.50;99.90;;;;;;2063328;28;20475;-69
2021/10/18 04:55:18;;;;;;;7.68;5.57;;;8.50;99.90;;;;;;2063460;28;20022;-69
2021/10/18 04:56:19;;;;;;;6.22;5.63;;;8.50;99.90;;;;;;2066629;28;20022;-69
2021/10/18 04:57:19;;;;;;;8.13;5.70;;;8.50;99.90;;;;;;2066334;28;20529;-69
2021/10/18 04:58:20;;;;;;;6.95;5.63;;;8.50;99.90;;;;;;2067798;28;20045;-69
2021/10/18 04:59:20;;;;;;;7.35;5.55;;;8.50;99.90;;;;;;2069137;28;20025;-69
2021/10/18 05:00:22;;;;;;;6.97;6.00;;;8.50;99.90;;;;;;2065073;28;20022;-69
2021/10/18 05:01:23;;;;;;;6.93;5.70;;;8.50;99.90;;;;;;2063519;28;20053;-69
2021/10/18 05:02:23;;;;;;;8.02;6.07;;;8.50;99.90;;;;;;2063309;28;20478;-69
2021/10/18 05:03:24;;;;;;;6.47;5.30;;;8.50;99.90;;;;;;2063582;28;20034;-69
2021/10/18 05:04:25;;;;;;;6.35;5.30;;;8.50;99.90;;;;;;2063242;28;20109;-69
2021/10/18 05:05:25;;;;;;;6.45;5.78;;;8.50;99.90;;;;;;2075073;28;20089;-69
2021/10/18 05:06:26;;;;;;;6.50;5.88;;;8.50;99.90;;;;;;2069779;28;20041;-69
2021/10/18 05:07:26;;;;;;;8.52;6.70;;;8.50;99.90;;;;;;2075846;28;20025;-69
2021/10/18 05:08:27;;;;;;;6.88;6.13;;;8.50;99.90;;;;;;2066889;28;20073;-69
2021/10/18 05:09:27;;;;;;;7.32;5.82;;;8.50;99.90;;;;;;2063367;28;20029;-69
2021/10/18 05:10:28;;;;;;;7.00;6.03;;;8.50;99.90;;;;;;2070286;28;20625;-69
2021/10/18 05:11:29;;;;;;;6.78;5.82;;;8.50;99.90;;;;;;2067409;28;20030;-69
2021/10/18 05:12:29;;;;;;;6.63;5.60;;;8.50;99.90;;;;;;2067804;28;20807;-69
2021/10/18 05:13:30;;;;;;;8.20;6.32;;;8.50;99.90;;;;;;2064129;28;20359;-69
2021/10/18 05:14:30;;;;;;;7.60;5.82;;;8.50;99.90;;;;;;2063234;28;20050;-69
2021/10/18 05:15:31;;;;;;;7.40;6.05;;;8.50;99.90;;;;;;2063359;28;20471;-69
2021/10/18 05:16:34;;;;;;;5.78;5.20;;;8.50;99.90;;;;;;2063108;28;20057;-69
2021/10/18 05:17:34;;;;;;;10.90;6.85;;;8.50;99.90;;;;;;2063469;28;20034;-69
2021/10/18 05:18:35;;;;;;;7.85;6.30;;;8.50;99.90;;;;;;2069956;28;20041;-69
2021/10/18 05:19:36;;;;;;;9.18;6.43;;;8.50;99.90;;;;;;2067523;28;20852;-69